Video statistics

Date Title
2007-03-14 March 14: Becoming a NerdFighter 03:12 184,735 3,143 14 712 3,301
2007-04-25 Helen Hunt 03:25 510,135 6,798 120 1,235 2,447
2007-05-09 My 9th: Singing and Randy 03:54 134,236 2,219 19 193 2,795
2007-05-23 May 23rd: Miniature Soccer Team 03:22 137,350 2,414 15 176 2,158
2007-05-30 May 30th: Ranavalona and Clean Coal 04:00 143,081 1,934 25 141 2,923
2007-06-14 June 13: Dominican Debacles 03:10 107,951 1,466 14 137 3,446
2007-06-27 June 27: Good Morning John, it's Wednesday 02:40 129,827 2,907 33 308 2,074
2007-07-18 July 18: Accio Deathly Hallows (no spoilers) 03:54 2,066,198 32,221 1,406 6,451 3,021
2007-08-02 August 1: It's Too Hot 03:44 346,237 5,345 75 1,007 3,209
2007-08-15 August 15: Getting Featured on YouTube 03:57 139,287 3,349 41 392 2,914
2007-08-29 August 29th: Goodbye 29 Year Old John 02:51 142,769 2,540 38 250 1,912
2007-09-06 September 5th: I'm Gonna Kill You 03:59 326,416 6,639 190 899 2,412
2007-09-19 September 19th: The Luck of my Life 03:00 158,731 5,393 62 526 1,494
2007-10-04 Oct 3rd: Baby I Sold Your Dog On EBay 03:59 163,034 3,136 85 316 2,176
2007-10-17 October 17th: The Man Who Throws The Tetris Piece 02:50 302,380 7,048 107 889 886
2007-10-31 October 31st: Nerd Gurl *EXPLICIT* 02:46 162,632 4,090 162 1,010 1,894
2007-12-05 December 5th: The Adorable Cannibal (PG-13) 04:00 111,319 1,933 55 315 2,844
2007-12-20 December 19: The Day that the Nerds Took Over YouTube 03:57 136,949 3,364 50 557 3,154
2007-12-31 Dec 31: Goodbye Brotherhood 2.0 04:35 276,735 8,671 63 2,100 2,978
2008-02-27 People Who Love Giraffes Who Love Giraffes (The Song) 04:01 735,108 5,074 208 687 2,699
2008-05-08 From the Airport: And some Nerdfighterlike 03:58 194,268 5,536 56 857 2,368
2008-07-10 What Would Captain Picard Do 05:10 276,536 5,480 186 851 2,926
2008-07-19 Book Eight...Another Harry Potter Song 04:49 351,735 7,307 119 1,689 4,155
2008-08-27 Butte Montana 00:36 112,517 1,738 40 310 443
2008-10-01 The Man Who Throws the Tetris Piece 04:51 162,481 2,414 69 300 2,149
2008-10-30 Hank and Katherine...On the Rise 03:59 397,192 12,349 111 2,118 3,408
2008-10-31 SPWNING Halloween 03:23 114,485 1,938 31 255 2,826
2008-12-22 A Christmas Song! 03:56 161,537 3,107 88 718 3,977
2009-01-15 TIny Cars SUCK! 03:18 470,304 4,383 793 1,203 2,323
2009-02-12 A Song About an Anglerfish 02:55 1,584,218 28,666 407 4,125 3,774
2009-02-26 I Know (A Song in Ten Words) 03:00 1,182,953 17,470 211 3,196 2,744
2009-03-12 I'm Not Edward Cullen: A Song 02:58 546,893 7,045 291 1,408 2,366
2009-03-26 Squirrel Attack! 04:00 6,440,503 13,462 8,630 3,160 4,131
2009-04-09 It All Makes Sense at the End 03:36 402,182 8,704 122 1,516 2,678
2009-04-16 The Day the YouTubes Died 04:01 324,029 8,380 261 1,790 2,695
2009-04-23 DFTBA 04:50 848,782 20,651 250 3,683 3,004
2009-04-30 A GOAT GIVING BIRTH 03:09 4,109,104 7,366 591 2,429 2,475
2009-05-07 Dead Boy's Girlfriend 04:01 188,993 3,800 92 671 2,892
2009-05-21 Ulcerative Colitis: A Song 03:52 180,767 4,297 66 1,089 4,991
2009-06-03 Protons and Neutrons: A Song 02:58 208,425 5,163 99 607 1,069
2009-07-02 Most Subscribed: A Song 02:53 110,022 2,690 96 386 2,109
2009-07-16 This Isn't Hogwarts! A Harry Potter Song 04:00 997,462 21,230 507 2,852 3,852
2009-07-30 Mules are so Half-Ass 04:00 192,365 5,732 107 692 3,960
2009-08-12 Vegetables that look like Penises 03:35 377,735 6,993 825 1,763 2,794
2009-08-19 So Jokes: Video EP 15:51 126,308 2,681 68 388 9,026
2009-08-27 DEMOLITION DERBY! 04:00 192,439 2,868 183 470 4,128
2009-09-09 Television Crime Shows Suck 04:00 453,962 17,966 276 2,458 4,097
2009-10-08 Nerdfighteria Island 03:20 189,398 5,061 107 961 2,309
2009-10-22 Balloon Boy: A Short Song 03:50 102,266 2,660 72 340 3,787
2009-11-05 Please Buy My Album (A Song / Medley) 04:01 109,118 2,645 134 392 3,671
2009-12-02 This Machine Pwns n00bs: A Song 04:00 118,342 3,069 124 529 3,648
2009-12-17 Project for Awesome: The Nature Conservancy 03:50 94,250 5,987 50 1,557 3,921
2009-12-31 The STUPIDEST NEWS STORIES of 2009 (a song) 04:00 477,094 13,887 204 1,404 4,247
2010-05-12 Hank Raps about w00tstock...for real 03:15 184,274 7,548 163 958 3,696
2010-05-31 Farmville!!!!! A Song 03:18 245,249 5,593 279 594 3,752
2010-08-25 FRENCH THE LLAMA! John is 33! 05:56 257,821 8,063 66 2,776 4,136
2010-10-07 The Fermi Paradox: A Song 03:15 499,384 12,403 185 1,904 3,156
2010-10-21 Strange Charm: A Song about Quarks 02:33 1,990,471 38,447 235 7,255 3,106
2010-11-03 Phineas Gage: A Song 04:01 340,878 6,299 89 1,019 3,934
2010-11-18 HARRY POTTER SONG! 04:00 558,706 19,734 312 2,330 4,141
2010-12-02 Makin' Babies: A Song 03:20 326,488 5,743 165 1,547 3,895
2010-12-16 Adult Female: A Song 03:31 293,993 7,917 175 1,050 2,406
2011-07-15 Harry Freaking Potter 04:01 368,975 10,737 239 1,892 4,302
2011-10-07 Steve Jobs and a Song 03:47 282,581 7,522 266 1,221 3,850
2011-11-15 T-Shirt and Jeans - A Song 03:53 396,724 7,726 244 1,565 3,865
2012-04-14 This is How You Load a Dishwasher - A Song 04:00 466,127 13,164 214 2,136 4,747
2012-05-25 The Subway Where I Used To Go (Somebody That I Used To Know / Gotye Parody) 03:37 666,327 18,787 327 2,648 3,163
2012-07-20 The Universe is Weird: A Song 03:56 865,406 24,421 220 2,704 4,682
2012-07-27 Tumblr: The Musical 03:58 2,791,852 65,882 2,160 7,850 4,246
2012-08-10 I Don't Have a Favorite Pony 04:00 639,678 17,038 487 4,385 4,802
2012-08-17 Open Letter to the Wizards 04:01 351,650 8,398 110 1,736 4,349
2012-10-05 21st Century Sherlock: A Sherlock / Doors Song 03:27 361,326 11,375 369 1,347 3,436
2013-07-12 Oh, JK Rowling - A Harry Potter Song 03:29 461,077 20,698 271 2,619 4,012
2013-09-06 Undigested Lump (A Song) 03:58 359,924 31,122 465 2,350 5,215
2014-04-18 What is The Oldest Song? 04:00 699,652 22,751 393 1,642 3,624
2014-04-26 I Love Science (Clean Version) (Uncensored link in the Description) 03:44 633,543 13,269 397 1,294 3,608
2014-05-09 Oh JK Rowling - Kinetic Typography 03:59 703,545 22,522 688 1,293 4,298
2015-12-18 We're All Gonna Die - A Song 03:20 508,732 25,725 335 1,923 4,590
2016-05-13 The Time I Fell Asleep with an M&M in My Mouth (and a song) 03:51 259,078 9,731 207 1,034 4,602
2025-10-08 Being Alive 05:07 157,437 14,968 0 1,430